sensor_id;sensor_type;location;lat;lon;timestamp;pressure;altitude;pressure_sealevel;temperature;humidity
11487;BME280;10510;47.942;9.442;2024-01-27T00:00:07;96132.56;;;1.69;100.00
11487;BME280;10510;47.942;9.442;2024-01-27T00:02:08;96139.53;;;1.67;100.00
11487;BME280;10510;47.942;9.442;2024-01-27T00:04:08;96135.56;;;1.62;100.00
11487;BME280;10510;47.942;9.442;2024-01-27T00:06:08;96136.63;;;1.59;100.00
11487;BME280;10510;47.942;9.442;2024-01-27T00:08:09;96138.34;;;1.58;100.00
11487;BME280;10510;47.942;9.442;2024-01-27T00:10:09;96134.22;;;1.56;100.00
11487;BME280;10510;47.942;9.442;2024-01-27T00:12:09;96132.53;;;1.55;100.00
11487;BME280;10510;47.942;9.442;2024-01-27T00:14:10;96135.88;;;1.57;100.00
11487;BME280;10510;47.942;9.442;2024-01-27T00:16:10;96139.19;;;1.59;100.00
11487;BME280;10510;47.942;9.442;2024-01-27T00:18:10;96149.41;;;1.61;100.00
11487;BME280;10510;47.942;9.442;2024-01-27T00:20:11;96147.81;;;1.58;100.00
11487;BME280;10510;47.942;9.442;2024-01-27T00:22:11;96149.13;;;1.51;100.00
11487;BME280;10510;47.942;9.442;2024-01-27T00:24:13;96148.75;;;1.43;100.00
11487;BME280;10510;47.942;9.442;2024-01-27T00:26:13;96155.91;;;1.38;100.00
11487;BME280;10510;47.942;9.442;2024-01-27T00:28:14;96165.50;;;1.35;100.00
11487;BME280;10510;47.942;9.442;2024-01-27T00:30:14;96170.09;;;1.30;100.00
11487;BME280;10510;47.942;9.442;2024-01-27T00:32:14;96162.72;;;1.24;100.00
11487;BME280;10510;47.942;9.442;2024-01-27T00:34:15;96161.69;;;1.12;100.00
11487;BME280;10510;47.942;9.442;2024-01-27T00:36:15;96165.03;;;0.99;100.00
11487;BME280;10510;47.942;9.442;2024-01-27T00:38:15;96162.34;;;0.86;100.00
11487;BME280;10510;47.942;9.442;2024-01-27T00:40:16;96158.53;;;0.77;100.00
11487;BME280;10510;47.942;9.442;2024-01-27T00:42:16;96162.94;;;0.75;100.00
11487;BME280;10510;47.942;9.442;2024-01-27T00:44:18;96161.19;;;0.76;100.00
11487;BME280;10510;47.942;9.442;2024-01-27T00:46:18;96160.19;;;0.78;100.00
11487;BME280;10510;47.942;9.442;2024-01-27T00:48:19;96164.59;;;0.76;100.00
11487;BME280;10510;47.942;9.442;2024-01-27T00:50:19;96164.69;;;0.75;100.00
11487;BME280;10510;47.942;9.442;2024-01-27T00:52:20;96164.75;;;0.73;100.00
11487;BME280;10510;47.942;9.442;2024-01-27T00:54:20;96165.69;;;0.72;100.00
11487;BME280;10510;47.942;9.442;2024-01-27T00:56:20;96170.06;;;0.70;100.00
11487;BME280;10510;47.942;9.442;2024-01-27T00:58:21;96168.50;;;0.67;100.00
11487;BME280;10510;47.942;9.442;2024-01-27T01:00:21;96166.94;;;0.65;100.00
11487;BME280;10510;47.942;9.442;2024-01-27T01:02:21;96173.16;;;0.61;100.00
11487;BME280;10510;47.942;9.442;2024-01-27T01:04:22;96180.22;;;0.57;100.00
11487;BME280;10510;47.942;9.442;2024-01-27T01:06:23;96182.31;;;0.51;100.00
11487;BME280;10510;47.942;9.442;2024-01-27T01:08:23;96181.63;;;0.47;100.00
11487;BME280;10510;47.942;9.442;2024-01-27T01:10:23;96182.72;;;0.43;100.00
11487;BME280;10510;47.942;9.442;2024-01-27T01:12:24;96178.59;;;0.40;100.00
11487;BME280;10510;47.942;9.442;2024-01-27T01:14:28;96194.00;;;0.40;100.00
11487;BME280;10510;47.942;9.442;2024-01-27T01:16:28;96200.84;;;0.41;100.00
11487;BME280;10510;47.942;9.442;2024-01-27T01:18:28;96197.41;;;0.41;100.00
11487;BME280;10510;47.942;9.442;2024-01-27T01:20:29;96200.09;;;0.39;100.00
11487;BME280;10510;47.942;9.442;2024-01-27T01:22:30;96200.91;;;0.40;100.00
11487;BME280;10510;47.942;9.442;2024-01-27T01:24:30;96205.06;;;0.42;100.00
11487;BME280;10510;47.942;9.442;2024-01-27T01:26:31;96209.44;;;0.40;100.00
11487;BME280;10510;47.942;9.442;2024-01-27T01:28:31;96208.72;;;0.38;100.00
11487;BME280;10510;47.942;9.442;2024-01-27T01:30:32;96207.97;;;0.36;100.00
11487;BME280;10510;47.942;9.442;2024-01-27T01:32:32;96212.69;;;0.28;100.00
11487;BME280;10510;47.942;9.442;2024-01-27T01:34:33;96206.97;;;0.23;100.00
11487;BME280;10510;47.942;9.442;2024-01-27T01:36:34;96199.56;;;0.17;100.00
11487;BME280;10510;47.942;9.442;2024-01-27T01:38:34;96208.22;;;0.16;100.00
11487;BME280;10510;47.942;9.442;2024-01-27T01:40:34;96203.81;;;0.18;100.00
11487;BME280;10510;47.942;9.442;2024-01-27T01:42:35;96206.56;;;0.15;100.00
11487;BME280;10510;47.942;9.442;2024-01-27T01:44:35;96216.97;;;0.12;100.00
11487;BME280;10510;47.942;9.442;2024-01-27T01:46:35;96210.50;;;0.05;100.00
11487;BME280;10510;47.942;9.442;2024-01-27T01:48:36;96207.34;;;-0.01;100.00
11487;BME280;10510;47.942;9.442;2024-01-27T01:50:36;96205.94;;;-0.06;100.00
11487;BME280;10510;47.942;9.442;2024-01-27T01:52:38;96206.09;;;-0.09;100.00
11487;BME280;10510;47.942;9.442;2024-01-27T01:54:38;96211.38;;;-0.12;100.00
11487;BME280;10510;47.942;9.442;2024-01-27T01:56:39;96211.66;;;-0.17;100.00
11487;BME280;10510;47.942;9.442;2024-01-27T01:58:39;96210.38;;;-0.26;100.00
11487;BME280;10510;47.942;9.442;2024-01-27T02:00:39;96207.47;;;-0.35;100.00
11487;BME280;10510;47.942;9.442;2024-01-27T02:02:43;96207.69;;;-0.40;100.00
11487;BME280;10510;47.942;9.442;2024-01-27T02:04:44;96206.09;;;-0.42;100.00
11487;BME280;10510;47.942;9.442;2024-01-27T02:06:45;96203.53;;;-0.42;100.00
11487;BME280;10510;47.942;9.442;2024-01-27T02:08:47;96198.38;;;-0.42;100.00
11487;BME280;10510;47.942;9.442;2024-01-27T02:10:47;96203.53;;;-0.42;100.00
11487;BME280;10510;47.942;9.442;2024-01-27T02:12:47;96207.00;;;-0.43;100.00
11487;BME280;10510;47.942;9.442;2024-01-27T02:14:48;96199.63;;;-0.50;100.00
11487;BME280;10510;47.942;9.442;2024-01-27T02:16:48;96205.66;;;-0.51;100.00
11487;BME280;10510;47.942;9.442;2024-01-27T02:18:48;96198.84;;;-0.52;100.00
11487;BME280;10510;47.942;9.442;2024-01-27T02:20:48;96204.91;;;-0.53;100.00
11487;BME280;10510;47.942;9.442;2024-01-27T02:22:49;96200.09;;;-0.59;100.00
11487;BME280;10510;47.942;9.442;2024-01-27T02:24:49;96206.72;;;-0.72;100.00
11487;BME280;10510;47.942;9.442;2024-01-27T02:26:49;96213.16;;;-0.81;100.00
11487;BME280;10510;47.942;9.442;2024-01-27T02:28:49;96221.22;;;-0.88;100.00
11487;BME280;10510;47.942;9.442;2024-01-27T02:30:50;96224.03;;;-0.93;100.00
11487;BME280;10510;47.942;9.442;2024-01-27T02:32:51;96219.81;;;-0.94;100.00
11487;BME280;10510;47.942;9.442;2024-01-27T02:34:51;96231.72;;;-0.93;100.00
11487;BME280;10510;47.942;9.442;2024-01-27T02:36:52;96223.22;;;-0.94;100.00
11487;BME280;10510;47.942;9.442;2024-01-27T02:38:52;96230.16;;;-0.96;100.00
11487;BME280;10510;47.942;9.442;2024-01-27T02:40:52;96222.50;;;-0.97;100.00
11487;BME280;10510;47.942;9.442;2024-01-27T02:42:53;96230.19;;;-0.97;100.00
11487;BME280;10510;47.942;9.442;2024-01-27T02:44:53;96229.22;;;-0.95;100.00
11487;BME280;10510;47.942;9.442;2024-01-27T02:46:53;96231.78;;;-0.95;100.00
11487;BME280;10510;47.942;9.442;2024-01-27T02:48:54;96238.91;;;-1.00;100.00
11487;BME280;10510;47.942;9.442;2024-01-27T02:50:54;96238.28;;;-1.05;100.00
11487;BME280;10510;47.942;9.442;2024-01-27T02:52:54;96235.88;;;-1.08;100.00
11487;BME280;10510;47.942;9.442;2024-01-27T02:54:55;96245.22;;;-1.07;100.00
11487;BME280;10510;47.942;9.442;2024-01-27T02:56:55;96247.78;;;-1.07;100.00
11487;BME280;10510;47.942;9.442;2024-01-27T02:58:55;96241.00;;;-1.08;100.00
11487;BME280;10510;47.942;9.442;2024-01-27T03:00:56;96243.56;;;-1.08;100.00
11487;BME280;10510;47.942;9.442;2024-01-27T03:02:56;96245.38;;;-1.10;100.00
11487;BME280;10510;47.942;9.442;2024-01-27T03:04:58;96252.31;;;-1.12;100.00
11487;BME280;10510;47.942;9.442;2024-01-27T03:06:58;96250.75;;;-1.15;100.00
11487;BME280;10510;47.942;9.442;2024-01-27T03:08:59;96250.19;;;-1.21;100.00
11487;BME280;10510;47.942;9.442;2024-01-27T03:10:59;96256.56;;;-1.30;100.00
11487;BME280;10510;47.942;9.442;2024-01-27T03:12:59;96263.72;;;-1.37;100.00
11487;BME280;10510;47.942;9.442;2024-01-27T03:14:59;96265.59;;;-1.40;100.00
11487;BME280;10510;47.942;9.442;2024-01-27T03:17:00;96264.94;;;-1.44;100.00
11487;BME280;10510;47.942;9.442;2024-01-27T03:19:00;96263.34;;;-1.46;100.00
11487;BME280;10510;47.942;9.442;2024-01-27T03:21:00;96270.06;;;-1.44;100.00
11487;BME280;10510;47.942;9.442;2024-01-27T03:23:01;96270.78;;;-1.42;100.00
11487;BME280;10510;47.942;9.442;2024-01-27T03:25:01;96272.53;;;-1.42;100.00
11487;BME280;10510;47.942;9.442;2024-01-27T03:27:01;96275.94;;;-1.42;100.00
11487;BME280;10510;47.942;9.442;2024-01-27T03:29:02;96276.84;;;-1.43;100.00
11487;BME280;10510;47.942;9.442;2024-01-27T03:31:02;96268.31;;;-1.43;100.00
11487;BME280;10510;47.942;9.442;2024-01-27T03:33:02;96280.22;;;-1.42;100.00
11487;BME280;10510;47.942;9.442;2024-01-27T03:35:03;96282.59;;;-1.38;100.00
11487;BME280;10510;47.942;9.442;2024-01-27T03:37:04;96273.16;;;-1.37;100.00
11487;BME280;10510;47.942;9.442;2024-01-27T03:39:05;96273.94;;;-1.35;100.00
11487;BME280;10510;47.942;9.442;2024-01-27T03:41:05;96272.09;;;-1.33;100.00
11487;BME280;10510;47.942;9.442;2024-01-27T03:43:06;96274.66;;;-1.33;100.00
11487;BME280;10510;47.942;9.442;2024-01-27T03:45:06;96285.03;;;-1.34;100.00
11487;BME280;10510;47.942;9.442;2024-01-27T03:47:07;96288.59;;;-1.39;100.00
11487;BME280;10510;47.942;9.442;2024-01-27T03:49:07;96288.00;;;-1.44;100.00
11487;BME280;10510;47.942;9.442;2024-01-27T03:51:07;96288.97;;;-1.46;100.00
11487;BME280;10510;47.942;9.442;2024-01-27T03:53:07;96287.28;;;-1.47;100.00
11487;BME280;10510;47.942;9.442;2024-01-27T03:55:08;96289.13;;;-1.49;100.00
11487;BME280;10510;47.942;9.442;2024-01-27T03:57:08;96290.91;;;-1.51;100.00
11487;BME280;10510;47.942;9.442;2024-01-27T03:59:08;96295.28;;;-1.53;100.00
11487;BME280;10510;47.942;9.442;2024-01-27T04:01:11;96296.19;;;-1.54;100.00
11487;BME280;10510;47.942;9.442;2024-01-27T04:03:11;96300.63;;;-1.58;100.00
11487;BME280;10510;47.942;9.442;2024-01-27T04:05:12;96297.44;;;-1.63;100.00
11487;BME280;10510;47.942;9.442;2024-01-27T04:07:12;96295.91;;;-1.67;100.00
11487;BME280;10510;47.942;9.442;2024-01-27T04:09:12;96295.19;;;-1.71;100.00
11487;BME280;10510;47.942;9.442;2024-01-27T04:11:20;96293.69;;;-1.75;100.00
11487;BME280;10510;47.942;9.442;2024-01-27T04:13:24;96291.13;;;-1.75;100.00
11487;BME280;10510;47.942;9.442;2024-01-27T04:15:24;96295.56;;;-1.78;100.00
11487;BME280;10510;47.942;9.442;2024-01-27T04:17:24;96298.25;;;-1.81;100.00
11487;BME280;10510;47.942;9.442;2024-01-27T04:19:25;96301.84;;;-1.86;100.00
11487;BME280;10510;47.942;9.442;2024-01-27T04:21:25;96301.16;;;-1.89;100.00
11487;BME280;10510;47.942;9.442;2024-01-27T04:23:25;96302.19;;;-1.93;100.00
11487;BME280;10510;47.942;9.442;2024-01-27T04:25:26;96307.38;;;-1.95;100.00
11487;BME280;10510;47.942;9.442;2024-01-27T04:27:29;96303.16;;;-1.96;100.00
11487;BME280;10510;47.942;9.442;2024-01-27T04:29:30;96298.84;;;-1.95;100.00
11487;BME280;10510;47.942;9.442;2024-01-27T04:31:30;96298.94;;;-1.97;100.00
11487;BME280;10510;47.942;9.442;2024-01-27T04:33:31;96293.81;;;-1.97;100.00
11487;BME280;10510;47.942;9.442;2024-01-27T04:35:32;96296.22;;;-1.94;100.00
11487;BME280;10510;47.942;9.442;2024-01-27T04:37:32;96292.91;;;-1.96;100.00
11487;BME280;10510;47.942;9.442;2024-01-27T04:39:32;96296.38;;;-1.97;100.00
11487;BME280;10510;47.942;9.442;2024-01-27T04:41:32;96294.69;;;-1.98;100.00
11487;BME280;10510;47.942;9.442;2024-01-27T04:43:33;96300.72;;;-1.99;100.00
11487;BME280;10510;47.942;9.442;2024-01-27T04:45:33;96299.06;;;-2.00;100.00
11487;BME280;10510;47.942;9.442;2024-01-27T04:47:33;96300.03;;;-2.02;100.00
11487;BME280;10510;47.942;9.442;2024-01-27T04:49:34;96300.09;;;-2.04;100.00
11487;BME280;10510;47.942;9.442;2024-01-27T04:51:34;96304.44;;;-2.06;100.00
11487;BME280;10510;47.942;9.442;2024-01-27T04:53:35;96307.84;;;-2.06;100.00
11487;BME280;10510;47.942;9.442;2024-01-27T04:55:35;96304.44;;;-2.06;100.00
11487;BME280;10510;47.942;9.442;2024-01-27T04:57:35;96309.69;;;-2.09;100.00
11487;BME280;10510;47.942;9.442;2024-01-27T04:59:35;96312.47;;;-2.14;100.00
11487;BME280;10510;47.942;9.442;2024-01-27T05:01:36;96299.97;;;-2.21;100.00
11487;BME280;10510;47.942;9.442;2024-01-27T05:03:36;96296.75;;;-2.26;100.00
11487;BME280;10510;47.942;9.442;2024-01-27T05:05:36;96296.97;;;-2.31;100.00
11487;BME280;10510;47.942;9.442;2024-01-27T05:07:37;96293.72;;;-2.35;100.00
11487;BME280;10510;47.942;9.442;2024-01-27T05:09:38;96301.44;;;-2.36;100.00
11487;BME280;10510;47.942;9.442;2024-01-27T05:11:38;96297.22;;;-2.37;100.00
11487;BME280;10510;47.942;9.442;2024-01-27T05:13:40;96295.63;;;-2.40;100.00
11487;BME280;10510;47.942;9.442;2024-01-27T05:15:40;96301.72;;;-2.42;100.00
11487;BME280;10510;47.942;9.442;2024-01-27T05:17:40;96291.53;;;-2.44;100.00
11487;BME280;10510;47.942;9.442;2024-01-27T05:19:40;96298.38;;;-2.44;100.00
11487;BME280;10510;47.942;9.442;2024-01-27T05:21:41;96296.66;;;-2.44;100.00
11487;BME280;10510;47.942;9.442;2024-01-27T05:23:41;96293.31;;;-2.46;100.00
11487;BME280;10510;47.942;9.442;2024-01-27T05:25:42;96296.00;;;-2.49;100.00
11487;BME280;10510;47.942;9.442;2024-01-27T05:27:42;96300.44;;;-2.53;100.00
11487;BME280;10510;47.942;9.442;2024-01-27T05:29:42;96297.09;;;-2.55;100.00
11487;BME280;10510;47.942;9.442;2024-01-27T05:31:42;96296.41;;;-2.58;100.00
11487;BME280;10510;47.942;9.442;2024-01-27T05:33:43;96299.97;;;-2.62;100.00
11487;BME280;10510;47.942;9.442;2024-01-27T05:35:44;96296.78;;;-2.67;100.00
11487;BME280;10510;47.942;9.442;2024-01-27T05:37:44;96303.81;;;-2.72;100.00
11487;BME280;10510;47.942;9.442;2024-01-27T05:39:44;96298.72;;;-2.74;100.00
11487;BME280;10510;47.942;9.442;2024-01-27T05:41:45;96308.28;;;-2.78;100.00
11487;BME280;10510;47.942;9.442;2024-01-27T05:43:45;96307.44;;;-2.78;100.00
11487;BME280;10510;47.942;9.442;2024-01-27T05:45:46;96313.34;;;-2.76;100.00
11487;BME280;10510;47.942;9.442;2024-01-27T05:47:46;96305.59;;;-2.75;100.00
11487;BME280;10510;47.942;9.442;2024-01-27T05:49:46;96313.25;;;-2.75;100.00
11487;BME280;10510;47.942;9.442;2024-01-27T05:51:47;96314.16;;;-2.76;100.00
11487;BME280;10510;47.942;9.442;2024-01-27T05:53:48;96310.00;;;-2.78;100.00
11487;BME280;10510;47.942;9.442;2024-01-27T05:55:49;96307.63;;;-2.83;100.00
11487;BME280;10510;47.942;9.442;2024-01-27T05:57:49;96316.19;;;-2.84;100.00
11487;BME280;10510;47.942;9.442;2024-01-27T05:59:49;96318.75;;;-2.84;100.00
11487;BME280;10510;47.942;9.442;2024-01-27T06:01:50;96317.03;;;-2.83;100.00
11487;BME280;10510;47.942;9.442;2024-01-27T06:03:50;96311.66;;;-2.77;100.00
11487;BME280;10510;47.942;9.442;2024-01-27T06:05:50;96308.94;;;-2.72;100.00
11487;BME280;10510;47.942;9.442;2024-01-27T06:07:51;96306.28;;;-2.71;100.00
11487;BME280;10510;47.942;9.442;2024-01-27T06:09:51;96304.72;;;-2.73;100.00
11487;BME280;10510;47.942;9.442;2024-01-27T06:11:51;96304.88;;;-2.78;100.00
11487;BME280;10510;47.942;9.442;2024-01-27T06:13:51;96309.22;;;-2.80;100.00
11487;BME280;10510;47.942;9.442;2024-01-27T06:15:52;96309.31;;;-2.82;100.00
11487;BME280;10510;47.942;9.442;2024-01-27T06:17:52;96302.56;;;-2.84;100.00
11487;BME280;10510;47.942;9.442;2024-01-27T06:19:53;96314.59;;;-2.86;100.00
11487;BME280;10510;47.942;9.442;2024-01-27T06:21:53;96311.38;;;-2.91;100.00
11487;BME280;10510;47.942;9.442;2024-01-27T06:23:53;96314.84;;;-2.92;100.00
11487;BME280;10510;47.942;9.442;2024-01-27T06:25:54;96311.50;;;-2.94;100.00
11487;BME280;10510;47.942;9.442;2024-01-27T06:27:54;96309.13;;;-2.99;100.00
11487;BME280;10510;47.942;9.442;2024-01-27T06:29:54;96311.00;;;-3.03;100.00
11487;BME280;10510;47.942;9.442;2024-01-27T06:31:55;96315.25;;;-3.03;100.00
11487;BME280;10510;47.942;9.442;2024-01-27T06:33:55;96314.50;;;-3.05;100.00
11487;BME280;10510;47.942;9.442;2024-01-27T06:35:55;96312.81;;;-3.06;100.00
11487;BME280;10510;47.942;9.442;2024-01-27T06:37:55;96320.59;;;-3.09;100.00
11487;BME280;10510;47.942;9.442;2024-01-27T06:39:56;96314.72;;;-3.11;100.00
11487;BME280;10510;47.942;9.442;2024-01-27T06:41:56;96316.50;;;-3.13;100.00
11487;BME280;10510;47.942;9.442;2024-01-27T06:43:56;96322.53;;;-3.14;100.00
11487;BME280;10510;47.942;9.442;2024-01-27T06:45:57;96334.53;;;-3.16;100.00
11487;BME280;10510;47.942;9.442;2024-01-27T06:47:58;96329.53;;;-3.20;100.00
11487;BME280;10510;47.942;9.442;2024-01-27T06:49:58;96338.13;;;-3.21;100.00
11487;BME280;10510;47.942;9.442;2024-01-27T06:51:58;96337.09;;;-3.16;100.00
11487;BME280;10510;47.942;9.442;2024-01-27T06:53:59;96345.59;;;-3.16;100.00
11487;BME280;10510;47.942;9.442;2024-01-27T06:55:59;96349.88;;;-3.16;100.00
11487;BME280;10510;47.942;9.442;2024-01-27T06:57:59;96352.50;;;-3.18;100.00
11487;BME280;10510;47.942;9.442;2024-01-27T06:59:59;96348.16;;;-3.16;100.00
11487;BME280;10510;47.942;9.442;2024-01-27T07:02:00;96345.59;;;-3.16;100.00
11487;BME280;10510;47.942;9.442;2024-01-27T07:04:00;96341.38;;;-3.17;100.00
11487;BME280;10510;47.942;9.442;2024-01-27T07:06:00;96346.44;;;-3.15;100.00
11487;BME280;10510;47.942;9.442;2024-01-27T07:08:01;96349.75;;;-3.13;100.00
11487;BME280;10510;47.942;9.442;2024-01-27T07:10:02;96347.91;;;-3.10;100.00
11487;BME280;10510;47.942;9.442;2024-01-27T07:12:03;96350.47;;;-3.10;100.00
11487;BME280;10510;47.942;9.442;2024-01-27T07:14:04;96353.88;;;-3.09;100.00
11487;BME280;10510;47.942;9.442;2024-01-27T07:16:05;96348.75;;;-3.09;100.00
11487;BME280;10510;47.942;9.442;2024-01-27T07:18:05;96356.25;;;-3.05;100.00
11487;BME280;10510;47.942;9.442;2024-01-27T07:20:06;96360.22;;;-2.98;100.00
11487;BME280;10510;47.942;9.442;2024-01-27T07:22:07;96363.66;;;-2.97;100.00
11487;BME280;10510;47.942;9.442;2024-01-27T07:24:07;96360.13;;;-2.94;100.00
11487;BME280;10510;47.942;9.442;2024-01-27T07:26:09;96370.31;;;-2.93;100.00
11487;BME280;10510;47.942;9.442;2024-01-27T07:28:09;96359.94;;;-2.90;100.00
11487;BME280;10510;47.942;9.442;2024-01-27T07:30:10;96366.44;;;-2.81;100.00
11487;BME280;10510;47.942;9.442;2024-01-27T07:32:11;96366.16;;;-2.73;100.00
11487;BME280;10510;47.942;9.442;2024-01-27T07:34:13;96358.34;;;-2.70;100.00
11487;BME280;10510;47.942;9.442;2024-01-27T07:36:13;96360.81;;;-2.69;100.00
11487;BME280;10510;47.942;9.442;2024-01-27T07:38:14;96359.16;;;-2.70;100.00
11487;BME280;10510;47.942;9.442;2024-01-27T07:40:14;96364.28;;;-2.70;100.00
11487;BME280;10510;47.942;9.442;2024-01-27T07:42:15;96366.78;;;-2.68;100.00
11487;BME280;10510;47.942;9.442;2024-01-27T07:44:18;96356.53;;;-2.68;100.00
11487;BME280;10510;47.942;9.442;2024-01-27T07:46:18;96348.69;;;-2.64;100.00
11487;BME280;10510;47.942;9.442;2024-01-27T07:48:21;96350.91;;;-2.56;100.00
11487;BME280;10510;47.942;9.442;2024-01-27T07:50:22;96348.88;;;-2.48;100.00
11487;BME280;10510;47.942;9.442;2024-01-27T07:52:23;96343.38;;;-2.39;100.00
11487;BME280;10510;47.942;9.442;2024-01-27T07:54:23;96347.28;;;-2.30;100.00
11487;BME280;10510;47.942;9.442;2024-01-27T07:56:24;96345.13;;;-2.19;100.00
11487;BME280;10510;47.942;9.442;2024-01-27T07:58:24;96349.72;;;-2.07;100.00
11487;BME280;10510;47.942;9.442;2024-01-27T08:00:24;96348.38;;;-1.95;100.00
11487;BME280;10510;47.942;9.442;2024-01-27T08:02:25;96351.25;;;-1.82;100.00
11487;BME280;10510;47.942;9.442;2024-01-27T08:04:26;96354.03;;;-1.68;100.00
11487;BME280;10510;47.942;9.442;2024-01-27T08:06:28;96360.34;;;-1.56;100.00
11487;BME280;10510;47.942;9.442;2024-01-27T08:08:29;96358.28;;;-1.48;100.00
11487;BME280;10510;47.942;9.442;2024-01-27T08:10:30;96350.25;;;-1.40;100.00
11487;BME280;10510;47.942;9.442;2024-01-27T08:12:30;96351.50;;;-1.30;100.00
11487;BME280;10510;47.942;9.442;2024-01-27T08:14:30;96356.91;;;-1.17;100.00
11487;BME280;10510;47.942;9.442;2024-01-27T08:16:30;96372.66;;;-1.06;100.00
11487;BME280;10510;47.942;9.442;2024-01-27T08:18:31;96366.97;;;-0.94;100.00
11487;BME280;10510;47.942;9.442;2024-01-27T08:20:31;96366.38;;;-0.81;100.00
11487;BME280;10510;47.942;9.442;2024-01-27T08:22:32;96359.75;;;-0.68;100.00
11487;BME280;10510;47.942;9.442;2024-01-27T08:24:32;96370.16;;;-0.52;100.00
11487;BME280;10510;47.942;9.442;2024-01-27T08:26:33;96361.63;;;-0.35;100.00
11487;BME280;10510;47.942;9.442;2024-01-27T08:28:33;96368.72;;;-0.23;100.00
11487;BME280;10510;47.942;9.442;2024-01-27T08:30:33;96369.78;;;-0.10;100.00
11487;BME280;10510;47.942;9.442;2024-01-27T08:32:33;96369.00;;;0.06;100.00
11487;BME280;10510;47.942;9.442;2024-01-27T08:34:34;96366.56;;;0.20;100.00
11487;BME280;10510;47.942;9.442;2024-01-27T08:36:35;96360.19;;;0.44;100.00
11487;BME280;10510;47.942;9.442;2024-01-27T08:38:35;96362.50;;;2.63;100.00
11487;BME280;10510;47.942;9.442;2024-01-27T08:40:35;96347.94;;;6.54;100.00
11487;BME280;10510;47.942;9.442;2024-01-27T08:42:36;96338.84;;;9.35;100.00
11487;BME280;10510;47.942;9.442;2024-01-27T08:44:36;96334.81;;;11.50;100.00
11487;BME280;10510;47.942;9.442;2024-01-27T08:46:36;96328.63;;;13.01;100.00
11487;BME280;10510;47.942;9.442;2024-01-27T08:48:38;96332.50;;;13.98;100.00
11487;BME280;10510;47.942;9.442;2024-01-27T08:50:40;96326.75;;;14.60;100.00
11487;BME280;10510;47.942;9.442;2024-01-27T08:52:40;96338.81;;;15.41;100.00
11487;BME280;10510;47.942;9.442;2024-01-27T08:54:40;96326.97;;;15.99;100.00
11487;BME280;10510;47.942;9.442;2024-01-27T08:56:41;96322.22;;;16.70;100.00
11487;BME280;10510;47.942;9.442;2024-01-27T08:58:42;96321.25;;;17.31;100.00
11487;BME280;10510;47.942;9.442;2024-01-27T09:00:43;96320.63;;;17.80;100.00
11487;BME280;10510;47.942;9.442;2024-01-27T09:02:43;96317.00;;;18.24;100.00
11487;BME280;10510;47.942;9.442;2024-01-27T09:04:43;96310.28;;;18.77;100.00
11487;BME280;10510;47.942;9.442;2024-01-27T09:06:44;96322.91;;;19.10;100.00
11487;BME280;10510;47.942;9.442;2024-01-27T09:08:44;96317.88;;;19.28;100.00
11487;BME280;10510;47.942;9.442;2024-01-27T09:10:45;96317.16;;;19.48;100.00
11487;BME280;10510;47.942;9.442;2024-01-27T09:12:45;96320.78;;;19.88;100.00
11487;BME280;10510;47.942;9.442;2024-01-27T09:14:45;96327.72;;;19.83;100.00
11487;BME280;10510;47.942;9.442;2024-01-27T09:16:46;96336.72;;;20.08;100.00
11487;BME280;10510;47.942;9.442;2024-01-27T09:18:47;96334.72;;;20.43;100.00
11487;BME280;10510;47.942;9.442;2024-01-27T09:20:49;96330.25;;;20.64;100.00
11487;BME280;10510;47.942;9.442;2024-01-27T09:22:50;96326.34;;;20.47;100.00
11487;BME280;10510;47.942;9.442;2024-01-27T09:24:51;96317.56;;;20.46;100.00
11487;BME280;10510;47.942;9.442;2024-01-27T09:26:52;96318.81;;;20.70;100.00
11487;BME280;10510;47.942;9.442;2024-01-27T09:28:52;96318.03;;;21.48;100.00
11487;BME280;10510;47.942;9.442;2024-01-27T09:30:55;96323.53;;;22.30;100.00
11487;BME280;10510;47.942;9.442;2024-01-27T09:32:55;96335.00;;;22.80;100.00
11487;BME280;10510;47.942;9.442;2024-01-27T09:34:56;96332.72;;;22.59;100.00
11487;BME280;10510;47.942;9.442;2024-01-27T09:36:56;96338.22;;;22.39;100.00
11487;BME280;10510;47.942;9.442;2024-01-27T09:39:11;96341.78;;;21.43;100.00
11487;BME280;10510;47.942;9.442;2024-01-27T09:41:15;96344.03;;;21.26;100.00
11487;BME280;10510;47.942;9.442;2024-01-27T09:43:17;96344.06;;;21.84;100.00
11487;BME280;10510;47.942;9.442;2024-01-27T09:45:20;96345.38;;;22.00;100.00
11487;BME280;10510;47.942;9.442;2024-01-27T09:47:21;96340.81;;;22.14;100.00
11487;BME280;10510;47.942;9.442;2024-01-27T09:49:22;96338.47;;;22.56;100.00
11487;BME280;10510;47.942;9.442;2024-01-27T09:51:25;96337.06;;;23.03;100.00
11487;BME280;10510;47.942;9.442;2024-01-27T09:53:25;96332.31;;;23.79;100.00
11487;BME280;10510;47.942;9.442;2024-01-27T09:55:26;96330.44;;;23.79;100.00
11487;BME280;10510;47.942;9.442;2024-01-27T09:57:27;96327.03;;;21.47;100.00
11487;BME280;10510;47.942;9.442;2024-01-27T09:59:28;96322.91;;;20.73;100.00
11487;BME280;10510;47.942;9.442;2024-01-27T10:01:29;96326.63;;;21.43;100.00
11487;BME280;10510;47.942;9.442;2024-01-27T10:03:30;96317.56;;;20.13;100.00
11487;BME280;10510;47.942;9.442;2024-01-27T10:05:32;96323.53;;;17.70;100.00
11487;BME280;10510;47.942;9.442;2024-01-27T10:07:32;96330.88;;;15.18;100.00
11487;BME280;10510;47.942;9.442;2024-01-27T10:09:32;96336.41;;;13.69;100.00
11487;BME280;10510;47.942;9.442;2024-01-27T10:11:36;96346.66;;;15.88;100.00
11487;BME280;10510;47.942;9.442;2024-01-27T10:13:36;96342.34;;;18.39;100.00
11487;BME280;10510;47.942;9.442;2024-01-27T10:15:36;96336.53;;;19.42;100.00
11487;BME280;10510;47.942;9.442;2024-01-27T10:17:37;96325.34;;;20.28;100.00
11487;BME280;10510;47.942;9.442;2024-01-27T10:19:38;96320.00;;;20.87;100.00
11487;BME280;10510;47.942;9.442;2024-01-27T10:21:38;96324.06;;;21.10;100.00
11487;BME280;10510;47.942;9.442;2024-01-27T10:23:39;96328.91;;;21.40;100.00
11487;BME280;10510;47.942;9.442;2024-01-27T10:25:40;96327.88;;;21.47;100.00
11487;BME280;10510;47.942;9.442;2024-01-27T10:27:40;96319.31;;;21.25;100.00
11487;BME280;10510;47.942;9.442;2024-01-27T10:29:52;96323.88;;;20.98;100.00
11487;BME280;10510;47.942;9.442;2024-01-27T10:31:52;96320.84;;;20.81;100.00